Time;durP1;ratioP1;P1;durP2;ratioP2;P2;SDS_P1;SDS_P2;PMS_P1;PMS_P2;Temp;Humidity;BMP_temperature;BMP_pressure;BME280_temperature;BME280_humidity;BME280_pressure;Samples;Min_cycle;Max_cycle;Signal;HPM_P1;HPM_P2
2022/07/02 00:00:54;;;;;;;;;;;22.40;99.90;;;;;;4591285;19;19945;-33
2022/07/02 00:02:25;;;;;;;;;;;22.00;99.90;;;;;;4591442;19;19907;-33
2022/07/02 00:03:56;;;;;;;;;;;21.70;99.90;;;;;;4590682;19;19982;-32
2022/07/02 00:05:27;;;;;;;;;;;21.50;99.90;;;;;;4592034;19;19925;-33
2022/07/02 00:06:58;;;;;;;;;;;21.40;99.90;;;;;;4590065;19;20233;-34
2022/07/02 00:08:30;;;;;;;;;;;21.30;99.90;;;;;;4591154;19;19921;-37
2022/07/02 00:10:01;;;;;;;;;;;21.20;99.90;;;;;;4590492;19;19910;-34
2022/07/02 00:11:32;;;;;;;;;;;21.10;99.90;;;;;;4591083;19;19918;-38
2022/07/02 00:13:05;;;;;;;;;;;21.10;99.90;;;;;;4591392;19;19919;-35
2022/07/02 00:14:36;;;;;;;;;;;21.00;99.90;;;;;;4591669;19;19918;-35
2022/07/02 00:16:10;;;;;;;;;;;21.00;99.90;;;;;;4591824;19;20381;-35
2022/07/02 00:17:41;;;;;;;;;;;21.00;99.90;;;;;;4591604;19;19974;-38
2022/07/02 00:19:13;;;;;;;;;;;20.90;99.90;;;;;;4591244;19;19925;-32
2022/07/02 00:20:44;;;;;;;;;;;20.90;99.90;;;;;;4591599;19;19914;-38
2022/07/02 00:22:15;;;;;;;;;;;20.90;99.90;;;;;;4591429;19;20252;-37
2022/07/02 00:23:46;;;;;;;;;;;21.00;99.90;;;;;;4589871;19;20252;-35
2022/07/02 00:25:17;;;;;;;;;;;21.20;99.90;;;;;;4591342;19;20341;-37
2022/07/02 00:26:57;;;;;;;;;;;21.30;99.90;;;;;;4591170;19;19918;-36
2022/07/02 00:28:28;;;;;;;;;;;21.50;99.90;;;;;;4591123;19;19911;-36
2022/07/02 00:30:00;;;;;;;;;;;21.70;99.90;;;;;;4590993;19;19919;-37
2022/07/02 00:31:31;;;;;;;;;;;21.80;99.90;;;;;;4591021;19;19919;-38
2022/07/02 00:33:02;;;;;;;;;;;22.00;99.90;;;;;;4591102;19;20391;-34
2022/07/02 00:34:33;;;;;;;;;;;22.00;99.90;;;;;;4591226;19;19922;-34
2022/07/02 00:36:04;;;;;;;;;;;22.10;99.90;;;;;;4588321;19;20349;-34
2022/07/02 00:37:36;;;;;;;;;;;22.20;99.90;;;;;;4589327;19;20019;-39
2022/07/02 00:39:06;;;;;;;;;;;22.30;99.90;;;;;;4588137;19;19994;-35
2022/07/02 00:40:38;;;;;;;;;;;22.30;99.90;;;;;;4588514;19;19919;-37
2022/07/02 00:42:09;;;;;;;;;;;22.40;99.90;;;;;;4588590;19;20387;-40
2022/07/02 00:43:41;;;;;;;;;;;22.40;99.90;;;;;;4587637;19;19918;-35
2022/07/02 00:45:12;;;;;;;;;;;22.40;99.90;;;;;;4588819;19;20346;-36
2022/07/02 00:46:43;;;;;;;;;;;22.40;99.90;;;;;;4588413;19;19914;-33
2022/07/02 00:48:14;;;;;;;;;;;22.50;99.90;;;;;;4588794;19;19918;-33
2022/07/02 00:49:45;;;;;;;;;;;22.50;99.90;;;;;;4588857;19;19918;-33
2022/07/02 00:51:16;;;;;;;;;;;22.50;99.90;;;;;;4588814;19;19915;-32
2022/07/02 00:52:47;;;;;;;;;;;22.50;99.90;;;;;;4588489;19;19943;-33
2022/07/02 00:54:18;;;;;;;;;;;22.50;99.90;;;;;;4588751;19;19915;-35
2022/07/02 00:55:58;;;;;;;;;;;22.50;99.90;;;;;;4588563;19;19942;-34
2022/07/02 00:57:29;;;;;;;;;;;22.50;99.90;;;;;;4588567;19;20376;-33
2022/07/02 00:59:01;;;;;;;;;;;22.50;99.90;;;;;;4592952;19;19990;-33
2022/07/02 01:00:32;;;;;;;;;;;22.50;99.90;;;;;;4593528;19;20015;-34
2022/07/02 01:02:04;;;;;;;;;;;22.50;99.90;;;;;;4593371;19;19918;-40
2022/07/02 01:03:35;;;;;;;;;;;22.50;99.90;;;;;;4591448;19;19929;-41
2022/07/02 01:05:06;;;;;;;;;;;22.50;99.90;;;;;;4593064;19;19932;-36
2022/07/02 01:06:37;;;;;;;;;;;22.60;99.90;;;;;;4592891;19;19919;-38
2022/07/02 01:10:16;;;;;;;;;;;22.60;99.90;;;;;;4593941;19;20293;-33
2022/07/02 01:11:47;;;;;;;;;;;22.60;99.90;;;;;;4593699;19;19929;-40
2022/07/02 01:13:18;;;;;;;;;;;22.60;99.90;;;;;;4594915;19;19919;-35
2022/07/02 01:14:53;;;;;;;;;;;22.70;99.90;;;;;;4593775;19;19971;-35
2022/07/02 01:16:24;;;;;;;;;;;22.60;99.90;;;;;;4594946;19;19919;-44
2022/07/02 01:17:54;;;;;;;;;;;22.60;99.90;;;;;;4594873;19;19915;-38
2022/07/02 01:19:26;;;;;;;;;;;22.60;99.90;;;;;;4595098;19;20482;-32
2022/07/02 01:20:57;;;;;;;;;;;22.60;99.90;;;;;;4595339;19;19936;-33
2022/07/02 01:22:34;;;;;;;;;;;22.60;99.90;;;;;;4594871;19;19922;-33
2022/07/02 01:24:06;;;;;;;;;;;22.60;99.90;;;;;;4594662;19;19923;-38
2022/07/02 01:25:37;;;;;;;;;;;22.60;99.90;;;;;;4594933;19;19927;-35
2022/07/02 01:27:08;;;;;;;;;;;22.60;99.90;;;;;;4595195;19;19918;-33
2022/07/02 01:28:39;;;;;;;;;;;22.60;99.90;;;;;;4594840;19;19922;-37
2022/07/02 01:30:10;;;;;;;;;;;22.60;99.90;;;;;;4593644;19;19918;-36
2022/07/02 01:38:33;;;;;;;;;;;22.70;99.90;;;;;;4593553;19;19966;-32
2022/07/02 01:40:04;;;;;;;;;;;22.60;99.90;;;;;;4592995;19;20324;-34
2022/07/02 01:41:38;;;;;;;;;;;22.70;99.90;;;;;;4594456;19;19911;-39
2022/07/02 01:43:09;;;;;;;;;;;22.60;99.90;;;;;;4593329;19;20244;-33
2022/07/02 01:44:40;;;;;;;;;;;22.60;99.90;;;;;;4594189;19;19938;-34
2022/07/02 01:46:11;;;;;;;;;;;22.60;99.90;;;;;;4594249;19;19965;-34
2022/07/02 01:47:42;;;;;;;;;;;22.60;99.90;;;;;;4594510;19;19923;-36
2022/07/02 01:49:13;;;;;;;;;;;22.60;99.90;;;;;;4594072;19;19918;-33
2022/07/02 01:50:44;;;;;;;;;;;22.60;99.90;;;;;;4593367;19;19922;-37
2022/07/02 01:52:15;;;;;;;;;;;22.60;99.90;;;;;;4593749;19;20331;-36
2022/07/02 01:53:46;;;;;;;;;;;22.60;99.90;;;;;;4594996;19;19918;-34
2022/07/02 01:55:17;;;;;;;;;;;22.60;99.90;;;;;;4593935;19;19921;-34
2022/07/02 01:56:48;;;;;;;;;;;22.60;99.90;;;;;;4594554;19;19914;-33
2022/07/02 01:58:20;;;;;;;;;;;22.60;99.90;;;;;;4594618;19;19915;-35
2022/07/02 01:59:50;;;;;;;;;;;22.60;99.90;;;;;;4593923;19;19914;-36
2022/07/02 02:01:21;;;;;;;;;;;22.60;99.90;;;;;;4593984;19;19915;-39
2022/07/02 02:02:53;;;;;;;;;;;22.60;99.90;;;;;;4593527;19;19915;-37
2022/07/02 02:04:24;;;;;;;;;;;22.60;99.90;;;;;;4594188;19;20325;-39
2022/07/02 02:05:55;;;;;;;;;;;22.60;99.90;;;;;;4593733;19;19914;-38
2022/07/02 02:07:27;;;;;;;;;;;22.60;99.90;;;;;;4593862;19;19911;-39
2022/07/02 02:08:58;;;;;;;;;;;22.60;99.90;;;;;;4593858;19;19911;-34
2022/07/02 02:10:29;;;;;;;;;;;22.60;99.90;;;;;;4594416;19;19925;-39
2022/07/02 02:12:00;;;;;;;;;;;22.60;99.90;;;;;;4593592;19;19920;-37
2022/07/02 02:13:31;;;;;;;;;;;22.60;99.90;;;;;;4593395;19;19926;-33
2022/07/02 02:15:03;;;;;;;;;;;22.60;99.90;;;;;;4593889;19;19918;-41
2022/07/02 02:16:34;;;;;;;;;;;22.60;99.90;;;;;;4593628;19;19918;-39
2022/07/02 02:18:05;;;;;;;;;;;22.60;99.90;;;;;;4593606;19;19917;-37
2022/07/02 02:19:36;;;;;;;;;;;22.60;99.90;;;;;;4593710;19;19926;-33
2022/07/02 02:21:07;;;;;;;;;;;22.60;99.90;;;;;;4594182;19;20313;-35
2022/07/02 02:22:39;;;;;;;;;;;22.60;99.90;;;;;;4593084;19;19978;-35
2022/07/02 02:24:10;;;;;;;;;;;22.60;99.90;;;;;;4593469;19;20321;-33
2022/07/02 02:25:41;;;;;;;;;;;22.60;99.90;;;;;;4593952;19;19919;-37
2022/07/02 02:27:12;;;;;;;;;;;22.60;99.90;;;;;;4594056;19;20344;-34
2022/07/02 02:28:43;;;;;;;;;;;22.60;99.90;;;;;;4593318;19;19941;-36
2022/07/02 02:30:14;;;;;;;;;;;22.60;99.90;;;;;;4593644;19;19937;-36
2022/07/02 02:31:45;;;;;;;;;;;22.60;99.90;;;;;;4590853;19;20260;-34
2022/07/02 02:33:16;;;;;;;;;;;22.60;99.90;;;;;;4592636;19;20360;-41
2022/07/02 02:34:47;;;;;;;;;;;22.60;99.90;;;;;;4593399;19;19919;-37
2022/07/02 02:36:18;;;;;;;;;;;22.60;99.90;;;;;;4593840;19;19922;-33
2022/07/02 02:37:49;;;;;;;;;;;22.50;99.90;;;;;;4592280;19;19911;-34
2022/07/02 02:39:20;;;;;;;;;;;22.50;99.90;;;;;;4589307;19;20381;-42
2022/07/02 02:40:51;;;;;;;;;;;22.50;99.90;;;;;;4592043;19;20245;-34
2022/07/02 02:42:22;;;;;;;;;;;22.50;99.90;;;;;;4592119;19;19989;-38
2022/07/02 02:43:53;;;;;;;;;;;22.50;99.90;;;;;;4590649;19;19921;-33
2022/07/02 02:45:24;;;;;;;;;;;22.50;99.90;;;;;;4592451;19;19915;-38
2022/07/02 02:46:55;;;;;;;;;;;22.50;99.90;;;;;;4593193;19;19926;-33
2022/07/02 02:48:27;;;;;;;;;;;22.50;99.90;;;;;;4593752;19;20317;-33
2022/07/02 02:49:57;;;;;;;;;;;22.50;99.90;;;;;;4593220;19;19923;-33
2022/07/02 02:51:28;;;;;;;;;;;22.50;99.90;;;;;;4593085;19;20241;-38
2022/07/02 02:52:59;;;;;;;;;;;22.50;99.90;;;;;;4592055;19;20050;-37
2022/07/02 02:54:30;;;;;;;;;;;22.50;99.90;;;;;;4592348;19;19911;-38
2022/07/02 02:56:02;;;;;;;;;;;22.40;99.90;;;;;;4592593;19;20274;-31
2022/07/02 02:57:33;;;;;;;;;;;22.50;99.90;;;;;;4592843;19;19915;-37
2022/07/02 02:59:04;;;;;;;;;;;22.40;99.90;;;;;;4593318;19;19910;-38
2022/07/02 03:00:35;;;;;;;;;;;22.40;99.90;;;;;;4593004;19;19918;-34
2022/07/02 03:02:06;;;;;;;;;;;22.40;99.90;;;;;;4592790;19;20082;-34
2022/07/02 03:03:37;;;;;;;;;;;22.40;99.90;;;;;;4592119;19;19910;-39
2022/07/02 03:05:08;;;;;;;;;;;22.50;99.90;;;;;;4592695;19;19918;-34
2022/07/02 03:06:39;;;;;;;;;;;22.50;99.90;;;;;;4592876;19;20296;-38
2022/07/02 03:08:10;;;;;;;;;;;22.50;99.90;;;;;;4592645;19;19915;-33
2022/07/02 03:09:41;;;;;;;;;;;22.60;99.90;;;;;;4592686;19;19922;-39
2022/07/02 03:11:12;;;;;;;;;;;22.60;99.90;;;;;;4593124;19;19926;-35
2022/07/02 03:12:43;;;;;;;;;;;22.60;99.90;;;;;;4592648;19;19915;-37
2022/07/02 03:14:14;;;;;;;;;;;22.60;99.90;;;;;;4592359;19;19927;-35
2022/07/02 03:15:45;;;;;;;;;;;22.60;99.90;;;;;;4592577;19;20290;-34
2022/07/02 03:17:16;;;;;;;;;;;22.60;99.90;;;;;;4593140;19;19918;-36
2022/07/02 03:18:47;;;;;;;;;;;22.60;99.90;;;;;;4592156;19;19918;-33
2022/07/02 03:20:18;;;;;;;;;;;22.60;99.90;;;;;;4591743;19;20266;-37
2022/07/02 03:21:49;;;;;;;;;;;22.60;99.90;;;;;;4592226;19;19923;-36
2022/07/02 03:23:20;;;;;;;;;;;22.60;99.90;;;;;;4592558;19;19929;-35
2022/07/02 03:24:51;;;;;;;;;;;22.70;99.90;;;;;;4592287;19;19919;-34
2022/07/02 03:26:23;;;;;;;;;;;22.70;99.90;;;;;;4591536;19;19914;-34
2022/07/02 03:27:54;;;;;;;;;;;22.60;99.90;;;;;;4591902;19;20364;-39
2022/07/02 03:29:25;;;;;;;;;;;22.60;99.90;;;;;;4592450;19;19955;-33
2022/07/02 03:30:56;;;;;;;;;;;22.70;99.90;;;;;;4590973;19;19910;-39
2022/07/02 03:32:29;;;;;;;;;;;22.70;99.90;;;;;;4591843;19;19918;-37
2022/07/02 03:34:00;;;;;;;;;;;22.70;99.90;;;;;;4592654;19;19910;-39
2022/07/02 03:35:31;;;;;;;;;;;22.70;99.90;;;;;;4591992;19;19915;-42
2022/07/02 03:37:03;;;;;;;;;;;22.60;99.90;;;;;;4592014;19;19929;-36
2022/07/02 03:38:34;;;;;;;;;;;22.60;99.90;;;;;;4591594;19;19927;-40
2022/07/02 03:40:05;;;;;;;;;;;22.60;99.90;;;;;;4591419;19;19915;-38
2022/07/02 03:41:37;;;;;;;;;;;22.60;99.90;;;;;;4591810;19;20273;-39
2022/07/02 03:43:08;;;;;;;;;;;22.60;99.90;;;;;;4591370;19;19915;-41
2022/07/02 03:44:39;;;;;;;;;;;22.60;99.90;;;;;;4591955;19;19915;-40
2022/07/02 03:46:10;;;;;;;;;;;22.60;99.90;;;;;;4591005;19;20333;-39
2022/07/02 03:47:42;;;;;;;;;;;22.60;99.90;;;;;;4591557;19;19946;-38
2022/07/02 03:49:12;;;;;;;;;;;22.60;99.90;;;;;;4592265;19;19931;-40
2022/07/02 03:50:43;;;;;;;;;;;22.60;99.90;;;;;;4592634;19;19907;-34
2022/07/02 03:52:14;;;;;;;;;;;22.70;99.90;;;;;;4591530;19;19915;-37
2022/07/02 03:53:46;;;;;;;;;;;22.70;99.90;;;;;;4591972;19;19922;-33
2022/07/02 03:55:17;;;;;;;;;;;22.70;99.90;;;;;;4592089;19;19970;-34
2022/07/02 03:56:47;;;;;;;;;;;22.80;99.90;;;;;;4592195;19;19919;-34
2022/07/02 03:58:18;;;;;;;;;;;22.80;99.90;;;;;;4590415;19;19918;-37
2022/07/02 03:59:50;;;;;;;;;;;22.70;99.90;;;;;;4590641;19;19921;-37
2022/07/02 04:01:21;;;;;;;;;;;22.60;99.90;;;;;;4590386;19;19915;-32
2022/07/02 04:02:52;;;;;;;;;;;22.60;99.90;;;;;;4590984;19;20004;-34
2022/07/02 04:04:23;;;;;;;;;;;22.60;99.90;;;;;;4591412;19;19978;-33
2022/07/02 04:05:54;;;;;;;;;;;22.60;99.90;;;;;;4591518;19;19923;-36
2022/07/02 04:07:25;;;;;;;;;;;22.60;99.90;;;;;;4592093;19;19997;-37
2022/07/02 04:08:56;;;;;;;;;;;22.60;99.90;;;;;;4591072;19;19970;-34
2022/07/02 04:10:27;;;;;;;;;;;22.60;99.90;;;;;;4591524;19;19927;-37
2022/07/02 04:11:58;;;;;;;;;;;22.50;99.90;;;;;;4590515;19;19915;-39
2022/07/02 04:13:29;;;;;;;;;;;22.50;99.90;;;;;;4591430;19;19992;-39
2022/07/02 04:15:00;;;;;;;;;;;22.50;99.90;;;;;;4591397;19;19919;-35
2022/07/02 04:16:31;;;;;;;;;;;22.50;99.90;;;;;;4591761;19;19970;-34
2022/07/02 04:18:02;;;;;;;;;;;22.50;99.90;;;;;;4591573;19;19914;-40
2022/07/02 04:19:33;;;;;;;;;;;22.50;99.90;;;;;;4591599;19;19986;-40
2022/07/02 04:21:04;;;;;;;;;;;22.50;99.90;;;;;;4591078;19;19910;-33
2022/07/02 04:22:35;;;;;;;;;;;22.50;99.90;;;;;;4591700;19;20337;-39
2022/07/02 04:24:07;;;;;;;;;;;22.50;99.90;;;;;;4588997;19;19918;-40
2022/07/02 04:25:38;;;;;;;;;;;22.50;99.90;;;;;;4591469;19;19915;-34
2022/07/02 04:27:09;;;;;;;;;;;22.50;99.90;;;;;;4588043;19;19922;-39
2022/07/02 04:28:40;;;;;;;;;;;22.50;99.90;;;;;;4590543;19;20322;-36
2022/07/02 04:30:12;;;;;;;;;;;22.50;99.90;;;;;;4589136;19;19922;-33
2022/07/02 04:31:43;;;;;;;;;;;22.50;99.90;;;;;;4590216;19;19915;-40
2022/07/02 04:33:20;;;;;;;;;;;22.60;99.90;;;;;;4593057;19;19914;-39
2022/07/02 04:34:57;;;;;;;;;;;22.50;99.90;;;;;;4594993;19;19982;-35
2022/07/02 04:36:31;;;;;;;;;;;22.50;99.90;;;;;;4595334;19;19942;-33
2022/07/02 04:38:02;;;;;;;;;;;22.60;99.90;;;;;;4595741;19;20287;-36
2022/07/02 04:39:33;;;;;;;;;;;22.60;99.90;;;;;;4590667;19;20329;-34
2022/07/02 04:41:04;;;;;;;;;;;22.70;99.90;;;;;;4595584;19;19974;-38
2022/07/02 04:42:35;;;;;;;;;;;22.80;99.90;;;;;;4594855;19;19918;-33
2022/07/02 04:44:06;;;;;;;;;;;22.90;99.90;;;;;;4593120;19;19910;-33
2022/07/02 04:45:37;;;;;;;;;;;23.10;99.90;;;;;;4594499;19;19918;-35
2022/07/02 04:47:08;;;;;;;;;;;23.10;99.90;;;;;;4594369;19;19918;-34
2022/07/02 04:48:39;;;;;;;;;;;23.30;99.90;;;;;;4595976;19;19911;-36
2022/07/02 04:50:10;;;;;;;;;;;23.30;99.90;;;;;;4596029;19;19939;-34
2022/07/02 04:51:41;;;;;;;;;;;23.20;99.90;;;;;;4595875;19;20573;-33
2022/07/02 04:53:12;;;;;;;;;;;23.20;99.90;;;;;;4596096;19;19951;-32
2022/07/02 04:54:43;;;;;;;;;;;23.10;99.90;;;;;;4593690;19;19918;-34
2022/07/02 04:56:14;;;;;;;;;;;23.10;99.90;;;;;;4593178;19;19911;-35
2022/07/02 04:57:45;;;;;;;;;;;23.10;99.90;;;;;;4596177;19;19918;-39
2022/07/02 04:59:16;;;;;;;;;;;23.00;99.90;;;;;;4595947;19;19925;-34
2022/07/02 05:00:48;;;;;;;;;;;23.10;99.90;;;;;;4595523;19;19914;-39
2022/07/02 05:02:19;;;;;;;;;;;23.00;99.90;;;;;;4594804;19;19927;-31
2022/07/02 05:03:51;;;;;;;;;;;23.00;99.90;;;;;;4593454;19;19936;-33
2022/07/02 05:05:22;;;;;;;;;;;23.00;99.90;;;;;;4593109;19;20333;-36
2022/07/02 05:06:53;;;;;;;;;;;23.00;99.90;;;;;;4593400;19;19911;-40
2022/07/02 05:08:26;;;;;;;;;;;22.90;99.90;;;;;;4593485;19;20333;-34
2022/07/02 05:09:58;;;;;;;;;;;22.80;99.90;;;;;;4593220;19;20252;-37
2022/07/02 05:11:29;;;;;;;;;;;22.80;99.90;;;;;;4591997;19;19915;-34
2022/07/02 05:13:01;;;;;;;;;;;22.80;99.90;;;;;;4594789;19;19919;-36
2022/07/02 05:14:31;;;;;;;;;;;22.70;99.90;;;;;;4594607;19;19922;-35
2022/07/02 05:16:03;;;;;;;;;;;22.60;99.90;;;;;;4595160;19;19914;-33
2022/07/02 05:17:33;;;;;;;;;;;22.50;99.90;;;;;;4594269;19;19918;-34
2022/07/02 05:19:05;;;;;;;;;;;22.40;99.90;;;;;;4594119;19;19978;-38
2022/07/02 05:20:36;;;;;;;;;;;22.30;99.90;;;;;;4593725;19;20340;-37
2022/07/02 05:22:06;;;;;;;;;;;22.20;99.90;;;;;;4592427;19;19911;-40
2022/07/02 05:23:37;;;;;;;;;;;21.70;99.90;;;;;;4591622;19;19926;-39
2022/07/02 05:25:09;;;;;;;;;;;21.30;99.90;;;;;;4593045;19;19923;-32
2022/07/02 05:26:40;;;;;;;;;;;21.30;99.90;;;;;;4595603;19;19925;-33
2022/07/02 05:28:11;;;;;;;;;;;21.40;99.90;;;;;;4593656;19;20262;-33
2022/07/02 05:29:42;;;;;;;;;;;21.60;99.90;;;;;;4593781;19;19915;-33
2022/07/02 05:31:13;;;;;;;;;;;21.80;99.90;;;;;;4594250;19;19923;-34
2022/07/02 05:32:44;;;;;;;;;;;21.90;99.90;;;;;;4594343;19;19971;-34
2022/07/02 05:34:15;;;;;;;;;;;22.00;99.90;;;;;;4593888;19;19938;-35
2022/07/02 05:35:46;;;;;;;;;;;22.10;99.90;;;;;;4593590;19;19918;-41
2022/07/02 05:37:17;;;;;;;;;;;22.10;99.90;;;;;;4593326;19;19918;-35
2022/07/02 05:38:48;;;;;;;;;;;22.10;99.90;;;;;;4591755;19;19922;-39
2022/07/02 05:40:20;;;;;;;;;;;22.20;99.90;;;;;;4590778;19;19910;-38
2022/07/02 05:41:51;;;;;;;;;;;22.20;99.90;;;;;;4594902;19;19923;-39
2022/07/02 05:43:22;;;;;;;;;;;22.20;99.90;;;;;;4594068;19;20349;-33
2022/07/02 05:44:53;;;;;;;;;;;22.10;99.90;;;;;;4593780;19;19915;-34
2022/07/02 05:46:24;;;;;;;;;;;22.20;99.90;;;;;;4594144;19;19970;-33
2022/07/02 05:47:55;;;;;;;;;;;22.20;99.90;;;;;;4593699;19;19915;-35
2022/07/02 05:49:26;;;;;;;;;;;22.30;99.90;;;;;;4592560;19;19930;-37
2022/07/02 05:50:57;;;;;;;;;;;22.30;99.90;;;;;;4592434;19;19923;-34
2022/07/02 05:52:28;;;;;;;;;;;22.40;99.90;;;;;;4592451;19;19956;-34
2022/07/02 05:53:59;;;;;;;;;;;22.30;99.90;;;;;;4592176;19;19982;-37
2022/07/02 05:55:30;;;;;;;;;;;22.30;99.90;;;;;;4592303;19;19925;-33
2022/07/02 05:57:01;;;;;;;;;;;22.20;99.90;;;;;;4594558;19;20261;-39
2022/07/02 05:58:32;;;;;;;;;;;22.20;99.90;;;;;;4594527;19;19922;-37
2022/07/02 06:00:04;;;;;;;;;;;22.10;99.90;;;;;;4594131;19;19970;-34
2022/07/02 06:01:35;;;;;;;;;;;22.10;99.90;;;;;;4592499;19;19918;-36
2022/07/02 06:03:06;;;;;;;;;;;22.10;99.90;;;;;;4591553;19;19928;-33
2022/07/02 06:04:37;;;;;;;;;;;22.10;99.90;;;;;;4592555;19;19922;-38
2022/07/02 06:07:58;;;;;;;;;;;22.20;99.90;;;;;;4592994;19;19910;-34
2022/07/02 06:09:29;;;;;;;;;;;22.10;99.90;;;;;;4592204;19;19918;-35
2022/07/02 06:10:59;;;;;;;;;;;22.10;99.90;;;;;;4592076;19;20404;-35
2022/07/02 06:12:30;;;;;;;;;;;22.10;99.90;;;;;;4592249;19;19922;-38
2022/07/02 06:14:02;;;;;;;;;;;22.10;99.90;;;;;;4593300;19;19914;-36
2022/07/02 06:15:32;;;;;;;;;;;22.10;99.90;;;;;;4593535;19;19922;-41
2022/07/02 06:17:04;;;;;;;;;;;22.10;99.90;;;;;;4593783;19;19937;-37
2022/07/02 06:18:34;;;;;;;;;;;22.20;99.90;;;;;;4593600;19;19919;-33
2022/07/02 06:20:06;;;;;;;;;;;22.20;99.90;;;;;;4592775;19;20262;-37
2022/07/02 06:21:37;;;;;;;;;;;22.20;99.90;;;;;;4592520;19;19911;-39
2022/07/02 06:23:08;;;;;;;;;;;22.10;99.90;;;;;;4591479;19;19936;-36
2022/07/02 06:24:39;;;;;;;;;;;22.10;99.90;;;;;;4591739;19;19931;-38
2022/07/02 06:26:10;;;;;;;;;;;22.10;99.90;;;;;;4591815;19;20321;-33
2022/07/02 06:27:41;;;;;;;;;;;22.10;99.90;;;;;;4593902;19;19914;-34
2022/07/02 06:29:12;;;;;;;;;;;22.10;99.90;;;;;;4594169;19;19914;-37
2022/07/02 06:30:43;;;;;;;;;;;22.10;99.90;;;;;;4593324;19;19914;-36
2022/07/02 06:32:16;;;;;;;;;;;22.10;99.90;;;;;;4592057;19;19966;-33
2022/07/02 06:33:46;;;;;;;;;;;22.10;99.90;;;;;;4591583;19;20317;-35
2022/07/02 06:35:17;;;;;;;;;;;22.10;99.90;;;;;;4591409;19;19918;-34
2022/07/02 06:36:48;;;;;;;;;;;21.90;99.90;;;;;;4591498;19;19936;-37
2022/07/02 06:38:19;;;;;;;;;;;21.40;99.90;;;;;;4593375;19;19915;-36
2022/07/02 06:39:50;;;;;;;;;;;21.20;99.90;;;;;;4592514;19;20329;-40
2022/07/02 06:43:11;;;;;;;;;;;20.80;99.90;;;;;;4592960;19;19974;-38
2022/07/02 06:44:42;;;;;;;;;;;20.60;99.90;;;;;;4593064;19;20237;-34
2022/07/02 06:46:13;;;;;;;;;;;20.60;99.90;;;;;;4592760;19;19998;-37
2022/07/02 06:47:44;;;;;;;;;;;20.50;99.90;;;;;;4592541;19;19927;-36
2022/07/02 06:49:15;;;;;;;;;;;20.40;99.90;;;;;;4591646;19;19937;-34
2022/07/02 06:50:47;;;;;;;;;;;20.40;99.90;;;;;;4591318;19;20397;-37
2022/07/02 06:52:18;;;;;;;;;;;20.30;99.90;;;;;;4591189;19;19922;-40
2022/07/02 06:53:49;;;;;;;;;;;20.20;99.90;;;;;;4590489;19;19915;-35
2022/07/02 06:55:20;;;;;;;;;;;20.20;99.90;;;;;;4591685;19;19974;-41
2022/07/02 06:56:51;;;;;;;;;;;20.20;99.90;;;;;;4591478;19;19999;-39
2022/07/02 06:58:22;;;;;;;;;;;20.20;99.90;;;;;;4592424;19;20344;-36
2022/07/02 06:59:53;;;;;;;;;;;20.10;99.90;;;;;;4592681;19;19910;-41
2022/07/02 07:01:24;;;;;;;;;;;20.10;99.90;;;;;;4592005;19;20343;-36
2022/07/02 07:02:56;;;;;;;;;;;20.10;99.90;;;;;;4591505;19;19921;-37
2022/07/02 07:04:27;;;;;;;;;;;20.10;99.90;;;;;;4591064;19;19923;-36
2022/07/02 07:05:59;;;;;;;;;;;20.10;99.90;;;;;;4589693;19;19919;-39
2022/07/02 07:07:31;;;;;;;;;;;20.00;99.90;;;;;;4590341;19;19914;-43
2022/07/02 07:09:02;;;;;;;;;;;20.00;99.90;;;;;;4593713;19;19918;-39
2022/07/02 07:10:33;;;;;;;;;;;20.00;99.90;;;;;;4592119;19;20269;-37
2022/07/02 07:12:04;;;;;;;;;;;20.00;99.90;;;;;;4592377;19;19914;-37
2022/07/02 07:13:35;;;;;;;;;;;20.10;99.90;;;;;;4592242;19;19930;-37
2022/07/02 07:15:09;;;;;;;;;;;20.00;99.90;;;;;;4591899;19;19983;-40
2022/07/02 07:16:40;;;;;;;;;;;20.00;99.90;;;;;;4591957;19;19922;-34
2022/07/02 07:18:14;;;;;;;;;;;20.00;99.90;;;;;;4591072;19;19914;-38
2022/07/02 07:19:47;;;;;;;;;;;20.00;99.90;;;;;;4589792;19;19922;-36
2022/07/02 07:21:22;;;;;;;;;;;20.10;99.90;;;;;;4589607;19;20580;-38
2022/07/02 07:22:53;;;;;;;;;;;20.00;99.90;;;;;;4590418;19;19910;-37
2022/07/02 07:24:25;;;;;;;;;;;20.00;99.90;;;;;;4590713;19;20332;-38
2022/07/02 07:25:57;;;;;;;;;;;20.00;99.90;;;;;;4592863;19;20249;-37
2022/07/02 07:27:28;;;;;;;;;;;20.00;99.90;;;;;;4592888;19;19922;-39
2022/07/02 07:29:00;;;;;;;;;;;20.00;99.90;;;;;;4591897;19;20332;-33
2022/07/02 07:30:31;;;;;;;;;;;19.90;99.90;;;;;;4591690;19;19918;-36
2022/07/02 07:32:02;;;;;;;;;;;20.00;99.90;;;;;;4590618;19;19929;-35
2022/07/02 07:33:34;;;;;;;;;;;20.00;99.90;;;;;;4590490;19;19922;-35
2022/07/02 07:35:05;;;;;;;;;;;20.00;99.90;;;;;;4589185;19;20025;-38
2022/07/02 07:36:36;;;;;;;;;;;19.90;99.90;;;;;;4591229;19;19938;-35
2022/07/02 07:38:07;;;;;;;;;;;19.90;99.90;;;;;;4589849;19;20329;-34
2022/07/02 07:39:38;;;;;;;;;;;20.10;99.90;;;;;;4589428;19;19922;-39
2022/07/02 07:41:09;;;;;;;;;;;20.40;99.90;;;;;;4592409;19;19930;-35
2022/07/02 07:42:46;;;;;;;;;;;20.70;99.90;;;;;;4590044;19;20216;-41
2022/07/02 07:44:17;;;;;;;;;;;20.90;99.90;;;;;;4590761;19;19922;-36
2022/07/02 07:45:48;;;;;;;;;;;21.10;99.90;;;;;;4591690;19;19919;-38
2022/07/02 07:47:19;;;;;;;;;;;21.40;99.90;;;;;;4591065;19;20308;-38
2022/07/02 07:48:50;;;;;;;;;;;21.60;99.90;;;;;;4591016;19;19922;-35
2022/07/02 07:50:22;;;;;;;;;;;21.60;99.90;;;;;;4589431;19;19923;-39
2022/07/02 07:51:53;;;;;;;;;;;21.60;99.90;;;;;;4589515;19;20336;-41
2022/07/02 07:53:24;;;;;;;;;;;21.60;99.90;;;;;;4590141;19;19927;-37
2022/07/02 07:54:55;;;;;;;;;;;21.60;99.90;;;;;;4592825;19;19931;-33
2022/07/02 07:56:26;;;;;;;;;;;21.60;99.90;;;;;;4592568;19;19928;-41
2022/07/02 07:57:57;;;;;;;;;;;21.80;99.90;;;;;;4591915;19;19919;-39
2022/07/02 07:59:28;;;;;;;;;;;22.00;99.90;;;;;;4591475;19;20249;-35
2022/07/02 08:00:59;;;;;;;;;;;22.00;99.90;;;;;;4591316;19;20317;-39
2022/07/02 08:02:30;;;;;;;;;;;21.90;99.90;;;;;;4590423;19;19953;-38
2022/07/02 08:04:01;;;;;;;;;;;21.90;99.90;;;;;;4588133;19;20247;-39
2022/07/02 08:05:32;;;;;;;;;;;19.60;99.90;;;;;;4589619;19;19915;-35
2022/07/02 08:07:06;;;;;;;;;;;18.70;99.90;;;;;;4589084;19;19982;-32
2022/07/02 08:08:40;;;;;;;;;;;18.40;99.90;;;;;;4589663;19;19927;-31
2022/07/02 08:10:12;;;;;;;;;;;18.20;99.90;;;;;;4592052;19;19921;-36
2022/07/02 08:11:44;;;;;;;;;;;18.20;99.90;;;;;;4592114;19;19925;-36
2022/07/02 08:13:15;;;;;;;;;;;18.30;99.90;;;;;;4590456;19;19930;-34
2022/07/02 08:14:46;;;;;;;;;;;18.20;99.90;;;;;;4590845;19;19951;-38
2022/07/02 08:16:17;;;;;;;;;;;18.30;99.90;;;;;;4590858;19;19930;-35
2022/07/02 08:17:49;;;;;;;;;;;18.30;99.90;;;;;;4590333;19;19915;-34
2022/07/02 08:19:20;;;;;;;;;;;18.30;99.90;;;;;;4590144;19;19932;-33
2022/07/02 08:20:50;;;;;;;;;;;18.30;99.90;;;;;;4589715;19;19932;-34
2022/07/02 08:22:22;;;;;;;;;;;18.30;99.90;;;;;;4589366;19;19924;-31
2022/07/02 08:23:53;;;;;;;;;;;18.30;99.90;;;;;;4588918;19;20002;-40
2022/07/02 08:25:24;;;;;;;;;;;18.30;99.90;;;;;;4592164;19;19933;-36
2022/07/02 08:26:55;;;;;;;;;;;18.30;99.90;;;;;;4590306;19;20416;-33
2022/07/02 08:28:26;;;;;;;;;;;18.30;99.90;;;;;;4590560;19;19934;-36
2022/07/02 08:29:58;;;;;;;;;;;18.30;99.90;;;;;;4590561;19;19919;-33
2022/07/02 08:31:29;;;;;;;;;;;18.40;99.90;;;;;;4591513;19;19915;-35
2022/07/02 08:33:00;;;;;;;;;;;18.40;99.90;;;;;;4589938;19;20248;-34
2022/07/02 08:34:31;;;;;;;;;;;18.40;99.90;;;;;;4590255;19;19922;-36
2022/07/02 08:36:02;;;;;;;;;;;18.40;99.90;;;;;;4589572;19;19915;-34
2022/07/02 08:37:33;;;;;;;;;;;18.30;99.90;;;;;;4589600;19;19911;-34
2022/07/02 08:39:04;;;;;;;;;;;18.30;99.90;;;;;;4588662;19;19919;-37
2022/07/02 08:40:35;;;;;;;;;;;18.30;99.90;;;;;;4589141;19;19922;-34
2022/07/02 08:42:06;;;;;;;;;;;18.30;99.90;;;;;;4591133;19;20002;-39
2022/07/02 08:43:37;;;;;;;;;;;18.30;99.90;;;;;;4589632;19;19923;-32
2022/07/02 08:45:09;;;;;;;;;;;18.30;99.90;;;;;;4589657;19;19922;-35
2022/07/02 08:46:41;;;;;;;;;;;18.30;99.90;;;;;;4590737;19;19918;-36
2022/07/02 08:48:12;;;;;;;;;;;18.30;99.90;;;;;;4589980;19;19934;-37
2022/07/02 08:49:43;;;;;;;;;;;18.20;99.90;;;;;;4590234;19;19971;-34
2022/07/02 08:51:14;;;;;;;;;;;18.30;99.90;;;;;;4591149;19;19939;-35
2022/07/02 08:52:45;;;;;;;;;;;18.30;99.90;;;;;;4590875;19;19918;-40
2022/07/02 08:54:16;;;;;;;;;;;18.30;99.90;;;;;;4590386;19;19911;-37
2022/07/02 08:55:47;;;;;;;;;;;18.40;99.90;;;;;;4590394;19;20272;-39
2022/07/02 08:57:18;;;;;;;;;;;18.40;99.90;;;;;;4590742;19;19951;-36
2022/07/02 08:58:50;;;;;;;;;;;18.40;99.90;;;;;;4589326;19;19915;-34
2022/07/02 09:00:21;;;;;;;;;;;18.40;99.90;;;;;;4590028;19;20480;-35
2022/07/02 09:01:52;;;;;;;;;;;18.40;99.90;;;;;;4590867;19;19915;-38
2022/07/02 09:03:23;;;;;;;;;;;18.40;99.90;;;;;;4590255;19;19915;-35